Time;durP1;ratioP1;P1;durP2;ratioP2;P2;SDS_P1;SDS_P2;PMS_P1;PMS_P2;Temp;Humidity;BMP_temperature;BMP_pressure;BME280_temperature;BME280_humidity;BME280_pressure;Samples;Min_cycle;Max_cycle;Signal;HPM_P1;HPM_P2
2022/05/20 00:02:21;;;;;;;9.18;6.38;;;;;;;;;;5032314;27;93433;-71
2022/05/20 00:04:48;;;;;;;9.45;5.75;;;;;;;;;;5023405;27;92524;-71
2022/05/20 00:07:14;;;;;;;6.50;5.18;;;;;;;;;;5021712;27;94830;-71
2022/05/20 00:09:41;;;;;;;7.28;5.38;;;;;;;;;;5018016;27;93465;-71
2022/05/20 00:12:07;;;;;;;7.25;5.57;;;;;;;;;;5016751;28;92463;-71
2022/05/20 00:14:34;;;;;;;7.65;5.28;;;;;;;;;;5014095;28;93532;-71
2022/05/20 00:17:04;;;;;;;8.95;4.65;;;;;;;;;;5022039;27;92736;-71
2022/05/20 00:19:30;;;;;;;8.83;4.70;;;;;;;;;;5032768;27;93326;-71
2022/05/20 00:21:57;;;;;;;7.28;4.57;;;;;;;;;;5019440;27;93670;-71
2022/05/20 00:24:23;;;;;;;8.63;5.10;;;;;;;;;;5014988;28;92016;-71
2022/05/20 00:26:50;;;;;;;6.53;5.32;;;;;;;;;;5033584;28;92580;-71
2022/05/20 00:29:17;;;;;;;10.23;5.60;;;;;;;;;;5034002;27;93637;-71
2022/05/20 00:31:43;;;;;;;8.07;6.10;;;;;;;;;;5035380;27;94829;-71
2022/05/20 00:34:10;;;;;;;9.88;5.78;;;;;;;;;;5025887;27;93279;-71
2022/05/20 00:36:36;;;;;;;6.53;5.93;;;;;;;;;;5029459;27;92614;-71
2022/05/20 00:39:03;;;;;;;10.07;5.95;;;;;;;;;;5032748;27;93125;-71
2022/05/20 00:41:29;;;;;;;9.60;6.50;;;;;;;;;;5033982;27;93910;-71
2022/05/20 00:43:55;;;;;;;12.98;6.90;;;;;;;;;;5017567;28;92479;-72
2022/05/20 00:46:23;;;;;;;10.43;6.10;;;;;;;;;;5019234;27;93184;-71
2022/05/20 00:48:55;;;;;;;9.43;6.30;;;;;;;;;;5021201;27;92081;-71
2022/05/20 00:51:31;;;;;;;14.00;5.70;;;;;;;;;;5018417;28;94389;-71
2022/05/20 00:54:04;;;;;;;6.68;5.45;;;;;;;;;;5027979;27;92804;-71
2022/05/20 00:56:34;;;;;;;8.15;6.20;;;;;;;;;;5019581;28;95073;-71
2022/05/20 00:59:01;;;;;;;8.75;6.05;;;;;;;;;;5013434;28;96615;-72
2022/05/20 01:01:28;;;;;;;10.43;6.70;;;;;;;;;;5017437;28;95472;-71
2022/05/20 01:03:55;;;;;;;9.20;6.85;;;;;;;;;;5018556;28;93831;-71
2022/05/20 01:06:21;;;;;;;10.23;6.80;;;;;;;;;;5016097;28;94241;-71
2022/05/20 01:08:48;;;;;;;13.13;7.22;;;;;;;;;;5017023;27;93504;-71
2022/05/20 01:11:14;;;;;;;7.60;6.10;;;;;;;;;;5034203;27;92468;-71
2022/05/20 01:13:40;;;;;;;9.82;6.75;;;;;;;;;;5035364;27;94157;-71
2022/05/20 01:16:10;;;;;;;12.63;7.20;;;;;;;;;;5037863;27;93471;-71
2022/05/20 01:18:38;;;;;;;10.63;6.97;;;;;;;;;;5024778;27;93153;-72
2022/05/20 01:21:05;;;;;;;11.93;7.15;;;;;;;;;;5030481;27;96246;-71
2022/05/20 01:23:32;;;;;;;12.32;6.57;;;;;;;;;;5022583;28;94088;-71
2022/05/20 01:25:59;;;;;;;8.10;6.75;;;;;;;;;;5017741;27;93018;-71
2022/05/20 01:28:27;;;;;;;10.88;7.15;;;;;;;;;;5027243;28;94052;-72
2022/05/20 01:30:55;;;;;;;13.27;7.65;;;;;;;;;;5034599;27;92459;-71
2022/05/20 01:33:24;;;;;;;12.32;7.20;;;;;;;;;;5032296;27;93415;-71
2022/05/20 01:35:50;;;;;;;8.60;6.85;;;;;;;;;;5015809;28;93215;-72
2022/05/20 01:38:16;;;;;;;9.18;6.25;;;;;;;;;;5020737;28;92189;-71
2022/05/20 01:40:52;;;;;;;7.03;5.75;;;;;;;;;;5017183;28;93624;-71
2022/05/20 01:43:34;;;;;;;9.70;6.97;;;;;;;;;;5020547;28;92571;-72
2022/05/20 01:46:05;;;;;;;8.57;6.70;;;;;;;;;;5027129;27;94884;-71
2022/05/20 01:48:35;;;;;;;6.65;6.05;;;;;;;;;;5022336;27;93472;-71
2022/05/20 01:51:03;;;;;;;7.00;6.07;;;;;;;;;;5032469;28;92452;-71
2022/05/20 01:53:36;;;;;;;5.78;5.18;;;;;;;;;;5023348;27;93943;-71
2022/05/20 01:56:12;;;;;;;9.82;5.78;;;;;;;;;;5019905;27;96271;-71
2022/05/20 01:58:58;;;;;;;6.72;5.75;;;;;;;;;;5034811;27;92372;-72
2022/05/20 02:01:30;;;;;;;6.82;6.18;;;;;;;;;;5025771;27;93859;-71
2022/05/20 02:03:59;;;;;;;7.70;6.60;;;;;;;;;;5028017;27;91728;-72
2022/05/20 02:06:34;;;;;;;12.32;6.10;;;;;;;;;;5017196;28;92519;-71
2022/05/20 02:09:02;;;;;;;9.10;5.50;;;;;;;;;;5026538;28;94745;-71
2022/05/20 02:11:40;;;;;;;5.78;5.18;;;;;;;;;;5021297;27;95671;-72
2022/05/20 02:14:10;;;;;;;5.68;5.05;;;;;;;;;;5032073;28;96556;-72
2022/05/20 02:16:38;;;;;;;6.03;3.85;;;;;;;;;;5031491;27;93229;-71
2022/05/20 02:19:10;;;;;;;3.55;3.35;;;;;;;;;;5034084;27;92661;-71
2022/05/20 02:21:39;;;;;;;8.98;4.03;;;;;;;;;;5021600;28;93219;-71
2022/05/20 02:24:08;;;;;;;4.82;4.32;;;;;;;;;;5032561;27;94829;-72
2022/05/20 02:26:38;;;;;;;7.90;5.47;;;;;;;;;;5016873;28;93108;-72
2022/05/20 02:29:09;;;;;;;5.30;4.80;;;;;;;;;;5016737;28;92716;-72
2022/05/20 02:31:38;;;;;;;6.95;5.32;;;;;;;;;;5031030;28;92554;-72
2022/05/20 02:34:05;;;;;;;5.78;5.20;;;;;;;;;;5028540;27;93987;-72
2022/05/20 02:36:33;;;;;;;5.55;5.05;;;;;;;;;;5015646;28;96490;-72
2022/05/20 02:38:59;;;;;;;9.80;5.43;;;;;;;;;;5029301;28;92489;-72
2022/05/20 02:41:26;;;;;;;6.43;5.25;;;;;;;;;;5019305;28;93884;-71
2022/05/20 02:43:52;;;;;;;7.63;5.13;;;;;;;;;;5026217;27;94038;-72
2022/05/20 02:46:18;;;;;;;6.07;4.28;;;;;;;;;;5027868;27;94260;-71
2022/05/20 02:48:45;;;;;;;4.80;4.32;;;;;;;;;;5023644;27;93464;-72
2022/05/20 02:51:11;;;;;;;5.63;5.10;;;;;;;;;;5033644;28;92508;-71
2022/05/20 02:53:37;;;;;;;6.53;5.43;;;;;;;;;;5016474;27;93805;-72
2022/05/20 02:56:04;;;;;;;8.27;5.20;;;;;;;;;;5028562;28;93780;-71
2022/05/20 03:04:09;;;;;;;5.88;5.25;;;;;;;;;;5015467;28;93489;-71
2022/05/20 03:06:40;;;;;;;6.22;5.00;;;;;;;;;;5035804;28;92568;-72
2022/05/20 03:09:07;;;;;;;4.78;4.30;;;;;;;;;;5033866;28;93627;-72
2022/05/20 03:11:34;;;;;;;4.88;4.45;;;;;;;;;;5035791;27;92727;-72
2022/05/20 03:14:01;;;;;;;5.30;4.80;;;;;;;;;;5026295;27;92488;-72
2022/05/20 03:16:27;;;;;;;6.07;5.57;;;;;;;;;;5031528;27;94368;-72
2022/05/20 03:18:54;;;;;;;6.78;5.63;;;;;;;;;;5032057;27;92351;-72
2022/05/20 03:21:20;;;;;;;6.28;5.68;;;;;;;;;;5032086;27;92427;-72
2022/05/20 03:23:46;;;;;;;8.20;5.32;;;;;;;;;;5026758;27;93481;-71
2022/05/20 03:26:15;;;;;;;6.05;5.15;;;;;;;;;;5030971;28;94885;-71
2022/05/20 03:28:42;;;;;;;6.30;5.32;;;;;;;;;;5037983;27;95513;-71
2022/05/20 03:31:10;;;;;;;5.72;5.00;;;;;;;;;;5035662;27;92414;-71
2022/05/20 03:33:36;;;;;;;5.38;4.25;;;;;;;;;;5018875;27;93262;-72
2022/05/20 03:36:03;;;;;;;5.55;4.22;;;;;;;;;;5018379;28;94552;-71
2022/05/20 03:38:30;;;;;;;4.28;3.88;;;;;;;;;;5021343;28;92981;-74
2022/05/20 03:40:56;;;;;;;4.00;3.70;;;;;;;;;;5034673;27;94025;-71
2022/05/20 03:43:23;;;;;;;5.35;3.97;;;;;;;;;;5023317;27;92490;-72
2022/05/20 03:45:53;;;;;;;9.60;4.15;;;;;;;;;;5020680;27;94116;-72
2022/05/20 03:48:19;;;;;;;6.73;3.90;;;;;;;;;;5019277;28;93323;-71
2022/05/20 03:50:48;;;;;;;3.97;3.55;;;;;;;;;;5027769;28;96161;-72
2022/05/20 03:53:14;;;;;;;5.90;3.60;;;;;;;;;;5024284;27;95575;-71
2022/05/20 03:55:40;;;;;;;3.35;3.05;;;;;;;;;;5023949;28;94230;-72
2022/05/20 03:58:07;;;;;;;3.42;3.22;;;;;;;;;;5028683;27;92416;-72
2022/05/20 04:01:56;;;;;;;4.18;3.78;;;;;;;;;;5013156;28;92960;-72
2022/05/20 04:03:23;;;;;;;7.13;3.85;;;;;;;;;;5025288;27;93254;-72
2022/05/20 04:05:49;;;;;;;4.90;3.40;;;;;;;;;;5023236;28;93602;-71
2022/05/20 04:08:17;;;;;;;4.30;3.80;;;;;;;;;;5035908;27;94241;-72
2022/05/20 04:10:43;;;;;;;5.40;4.90;;;;;;;;;;5034746;27;92396;-71
2022/05/20 04:13:09;;;;;;;10.00;7.88;;;;;;;;;;5027106;27;93298;-72
2022/05/20 04:15:35;;;;;;;13.57;10.75;;;;;;;;;;5023939;27;95973;-72
2022/05/20 04:18:02;;;;;;;8.90;7.35;;;;;;;;;;5027364;28;92625;-71
2022/05/20 04:20:28;;;;;;;7.45;6.15;;;;;;;;;;5033556;28;94260;-71
2022/05/20 04:22:54;;;;;;;8.05;6.15;;;;;;;;;;5016281;27;93205;-71
2022/05/20 04:25:21;;;;;;;11.13;9.27;;;;;;;;;;5015346;27;92484;-72
2022/05/20 04:27:47;;;;;;;11.65;10.02;;;;;;;;;;5014913;28;93218;-71
2022/05/20 04:30:13;;;;;;;12.25;7.28;;;;;;;;;;5013487;28;93318;-72
2022/05/20 04:32:39;;;;;;;5.35;4.85;;;;;;;;;;5018576;28;91858;-72
2022/05/20 04:35:06;;;;;;;5.50;4.65;;;;;;;;;;5016879;28;93507;-71
2022/05/20 04:37:32;;;;;;;5.90;5.30;;;;;;;;;;5022628;28;92470;-71
2022/05/20 04:39:59;;;;;;;7.68;5.38;;;;;;;;;;5032423;27;94994;-71
2022/05/20 04:47:56;;;;;;;8.40;6.57;;;;;;;;;;5037143;27;93497;-72
2022/05/20 04:50:22;;;;;;;7.35;6.30;;;;;;;;;;5037855;27;93482;-71
2022/05/20 04:52:48;;;;;;;9.38;6.53;;;;;;;;;;5033679;27;92806;-72
2022/05/20 04:55:15;;;;;;;9.32;5.90;;;;;;;;;;5019853;28;93168;-72
2022/05/20 04:57:44;;;;;;;7.43;6.32;;;;;;;;;;5017828;28;92559;-72
2022/05/20 05:00:12;;;;;;;8.57;6.60;;;;;;;;;;5022734;28;93021;-71
2022/05/20 05:02:39;;;;;;;13.73;6.50;;;;;;;;;;5021810;27;95798;-72
2022/05/20 05:05:07;;;;;;;14.40;10.85;;;;;;;;;;5017727;28;94880;-72
2022/05/20 05:07:36;;;;;;;23.50;10.40;;;;;;;;;;5028295;28;95634;-72
2022/05/20 05:10:03;;;;;;;16.60;10.20;;;;;;;;;;5022532;27;93373;-72
2022/05/20 05:12:30;;;;;;;14.40;10.57;;;;;;;;;;5024113;27;94321;-71
2022/05/20 05:14:56;;;;;;;16.15;11.38;;;;;;;;;;5020184;27;93218;-72
2022/05/20 05:20:13;;;;;;;18.67;11.60;;;;;;;;;;5028325;27;93234;-71
2022/05/20 05:22:40;;;;;;;17.20;12.43;;;;;;;;;;5031169;27;92779;-71
2022/05/20 05:25:08;;;;;;;17.83;12.07;;;;;;;;;;5018103;27;92537;-71
2022/05/20 05:27:35;;;;;;;18.02;12.88;;;;;;;;;;5018360;28;93697;-72
2022/05/20 05:30:01;;;;;;;21.15;13.00;;;;;;;;;;5014111;28;95549;-72
2022/05/20 05:32:27;;;;;;;20.73;13.30;;;;;;;;;;5022027;28;94109;-72
2022/05/20 05:34:54;;;;;;;20.02;12.68;;;;;;;;;;5020805;27;94232;-72
2022/05/20 05:37:20;;;;;;;23.02;13.77;;;;;;;;;;5016539;28;94247;-72
2022/05/20 05:39:46;;;;;;;21.95;13.60;;;;;;;;;;5018941;28;92452;-72
2022/05/20 05:42:13;;;;;;;20.80;12.38;;;;;;;;;;5014471;28;93496;-72
2022/05/20 05:44:40;;;;;;;21.40;13.57;;;;;;;;;;5023398;28;92737;-72
2022/05/20 05:47:06;;;;;;;22.67;13.90;;;;;;;;;;5032921;27;93188;-72
2022/05/20 05:49:32;;;;;;;20.58;13.43;;;;;;;;;;5036514;27;93605;-71
2022/05/20 05:51:59;;;;;;;24.83;15.10;;;;;;;;;;5036104;27;92446;-71
2022/05/20 05:54:25;;;;;;;31.83;15.18;;;;;;;;;;5032330;27;94777;-71
2022/05/20 05:56:51;;;;;;;21.75;14.90;;;;;;;;;;5017606;28;93579;-72
2022/05/20 05:59:17;;;;;;;23.85;14.68;;;;;;;;;;5013823;28;92562;-72
2022/05/20 06:01:44;;;;;;;26.80;15.82;;;;;;;;;;5025300;27;93535;-72
2022/05/20 06:04:10;;;;;;;21.25;14.70;;;;;;;;;;5036183;27;92460;-71
2022/05/20 06:06:36;;;;;;;28.88;17.23;;;;;;;;;;5017170;27;93016;-71
2022/05/20 06:09:02;;;;;;;27.20;16.50;;;;;;;;;;5026583;28;93669;-72
2022/05/20 06:11:29;;;;;;;25.30;17.17;;;;;;;;;;5036214;27;91729;-71
2022/05/20 06:13:56;;;;;;;26.83;16.42;;;;;;;;;;5024441;27;92821;-71
2022/05/20 06:16:22;;;;;;;26.88;18.20;;;;;;;;;;5026227;27;94480;-72
2022/05/20 06:18:50;;;;;;;32.28;19.50;;;;;;;;;;5015488;28;95033;-72
2022/05/20 06:21:16;;;;;;;28.95;17.13;;;;;;;;;;5020893;28;95758;-72
2022/05/20 06:23:43;;;;;;;30.65;18.38;;;;;;;;;;5024391;27;93489;-72
2022/05/20 06:26:09;;;;;;;33.08;19.08;;;;;;;;;;5014763;28;93253;-73
2022/05/20 06:28:43;;;;;;;30.27;18.60;;;;;;;;;;5016133;28;95093;-73
2022/05/20 06:31:10;;;;;;;24.20;16.10;;;;;;;;;;5014978;28;92463;-72
2022/05/20 06:33:36;;;;;;;21.48;16.25;;;;;;;;;;5019649;28;94399;-73
2022/05/20 06:41:33;;;;;;;19.30;14.13;;;;;;;;;;5017511;28;94474;-72
2022/05/20 06:43:59;;;;;;;21.58;13.43;;;;;;;;;;5033414;27;95889;-73
2022/05/20 06:46:26;;;;;;;21.10;13.10;;;;;;;;;;5032041;27;92530;-71
2022/05/20 06:48:55;;;;;;;21.98;12.90;;;;;;;;;;5034486;27;93739;-73
2022/05/20 06:51:30;;;;;;;19.20;12.52;;;;;;;;;;5023412;28;92504;-72
2022/05/20 06:53:57;;;;;;;21.45;12.93;;;;;;;;;;5013330;28;93253;-72
2022/05/20 06:56:25;;;;;;;19.30;12.30;;;;;;;;;;5016034;28;93078;-72
2022/05/20 06:58:51;;;;;;;20.17;12.00;;;;;;;;;;5014690;28;92529;-73
2022/05/20 07:01:17;;;;;;;21.33;11.88;;;;;;;;;;5018902;27;93052;-76
2022/05/20 07:03:44;;;;;;;20.95;13.05;;;;;;;;;;5018755;27;93234;-73
2022/05/20 07:06:12;;;;;;;27.48;12.52;;;;;;;;;;5026602;27;92506;-72
2022/05/20 07:08:38;;;;;;;23.67;12.30;;;;;;;;;;5013113;28;95656;-73
2022/05/20 07:11:05;;;;;;;21.17;12.25;;;;;;;;;;5018707;28;92425;-73
2022/05/20 07:13:39;;;;;;;16.90;11.75;;;;;;;;;;5032410;28;94359;-71
2022/05/20 07:16:05;;;;;;;20.80;11.07;;;;;;;;;;5032093;27;93754;-72
2022/05/20 07:18:34;;;;;;;20.70;13.27;;;;;;;;;;5016514;27;92474;-72
2022/05/20 07:21:00;;;;;;;29.00;12.75;;;;;;;;;;5018786;28;94219;-73
2022/05/20 07:23:29;;;;;;;21.92;12.68;;;;;;;;;;5029807;27;93608;-73
2022/05/20 07:25:55;;;;;;;17.58;11.15;;;;;;;;;;5033735;28;91789;-72
2022/05/20 07:28:21;;;;;;;22.98;11.60;;;;;;;;;;5021321;27;92511;-73
2022/05/20 07:30:48;;;;;;;23.33;10.48;;;;;;;;;;5017935;28;92746;-73
2022/05/20 07:33:14;;;;;;;16.95;9.23;;;;;;;;;;5021512;28;94827;-73
2022/05/20 07:35:40;;;;;;;19.40;9.68;;;;;;;;;;5033036;27;93643;-73
2022/05/20 07:38:07;;;;;;;14.77;9.68;;;;;;;;;;5017608;27;93402;-73
2022/05/20 07:40:34;;;;;;;13.57;8.90;;;;;;;;;;5014624;28;93253;-73
2022/05/20 07:43:00;;;;;;;13.57;8.07;;;;;;;;;;5032143;27;93458;-73
2022/05/20 07:45:26;;;;;;;12.70;9.23;;;;;;;;;;5035637;27;92529;-73
2022/05/20 07:47:53;;;;;;;18.40;9.38;;;;;;;;;;5023003;27;94240;-72
2022/05/20 07:50:19;;;;;;;23.40;9.55;;;;;;;;;;5018273;28;94644;-73
2022/05/20 07:55:34;;;;;;;13.95;8.35;;;;;;;;;;5031035;27;94181;-72
2022/05/20 07:58:02;;;;;;;11.30;8.05;;;;;;;;;;5013494;28;94950;-71
2022/05/20 08:00:29;;;;;;;14.88;8.65;;;;;;;;;;5018009;27;95721;-72
2022/05/20 08:02:57;;;;;;;14.50;9.00;;;;;;;;;;5028425;28;93218;-72
2022/05/20 08:05:24;;;;;;;17.58;11.02;;;;;;;;;;5028074;28;92369;-72
2022/05/20 08:07:51;;;;;;;14.60;8.57;;;;;;;;;;5030940;28;93365;-72
2022/05/20 08:10:18;;;;;;;15.38;8.63;;;;;;;;;;5016042;27;93632;-72
2022/05/20 08:12:45;;;;;;;18.48;7.85;;;;;;;;;;5025599;28;92579;-73
2022/05/20 08:15:12;;;;;;;12.63;6.97;;;;;;;;;;5032721;27;92464;-72
2022/05/20 08:17:40;;;;;;;18.23;8.40;;;;;;;;;;5034521;27;92690;-72
2022/05/20 08:20:09;;;;;;;11.27;6.45;;;;;;;;;;5030308;27;93564;-73
2022/05/20 08:22:36;;;;;;;17.95;7.13;;;;;;;;;;5026582;28;96151;-73
2022/05/20 08:25:03;;;;;;;15.70;7.25;;;;;;;;;;5030384;28;92515;-73
2022/05/20 08:27:30;;;;;;;18.80;7.30;;;;;;;;;;5023122;28;93421;-72
2022/05/20 08:29:57;;;;;;;16.88;7.15;;;;;;;;;;5022885;28;93936;-72
2022/05/20 08:32:24;;;;;;;13.77;6.88;;;;;;;;;;5014034;28;92430;-75
2022/05/20 08:34:50;;;;;;;12.50;7.25;;;;;;;;;;5023907;28;93220;-73
2022/05/20 08:37:17;;;;;;;12.93;6.63;;;;;;;;;;5013308;28;92460;-75
2022/05/20 08:39:44;;;;;;;17.98;6.20;;;;;;;;;;5014811;28;93056;-73
2022/05/20 08:42:22;;;;;;;12.50;5.97;;;;;;;;;;5011730;28;93446;-73
2022/05/20 08:44:48;;;;;;;15.52;5.82;;;;;;;;;;5018019;28;92650;-74
2022/05/20 08:47:21;;;;;;;9.93;6.20;;;;;;;;;;5033042;27;95319;-74
2022/05/20 08:49:49;;;;;;;12.18;5.55;;;;;;;;;;5029215;28;93766;-73
2022/05/20 08:52:15;;;;;;;13.65;6.47;;;;;;;;;;5024703;27;92896;-74
2022/05/20 08:54:41;;;;;;;14.07;6.00;;;;;;;;;;5024047;27;93479;-74
2022/05/20 08:57:29;;;;;;;14.68;5.07;;;;;;;;;;5015296;28;92444;-73
2022/05/20 08:59:56;;;;;;;11.13;5.35;;;;;;;;;;5021706;27;93014;-72
2022/05/20 09:02:23;;;;;;;11.55;5.72;;;;;;;;;;5015175;28;93451;-72
2022/05/20 09:04:49;;;;;;;12.15;5.00;;;;;;;;;;5013982;28;91710;-73
2022/05/20 09:07:18;;;;;;;15.68;6.50;;;;;;;;;;5028397;28;92977;-73
2022/05/20 09:09:47;;;;;;;12.50;6.72;;;;;;;;;;5024602;27;92411;-72
2022/05/20 09:12:31;;;;;;;17.30;6.13;;;;;;;;;;5013676;28;95175;-72
2022/05/20 09:17:46;;;;;;;15.25;5.47;;;;;;;;;;5027130;28;93213;-73
2022/05/20 09:20:17;;;;;;;15.70;6.25;;;;;;;;;;5032968;27;93412;-72
2022/05/20 09:22:53;;;;;;;12.70;5.70;;;;;;;;;;5027741;27;93701;-73
2022/05/20 09:25:23;;;;;;;130.77;33.08;;;;;;;;;;5012630;28;92421;-74
2022/05/20 09:27:51;;;;;;;122.30;36.70;;;;;;;;;;5015672;28;93453;-74
2022/05/20 09:30:21;;;;;;;69.63;21.83;;;;;;;;;;5022241;27;92767;-74
2022/05/20 09:33:14;;;;;;;59.35;17.58;;;;;;;;;;5035378;28;92462;-74
2022/05/20 09:35:40;;;;;;;25.08;9.57;;;;;;;;;;5036172;27;93127;-74
2022/05/20 09:38:25;;;;;;;16.30;7.47;;;;;;;;;;5034146;27;95977;-74
2022/05/20 09:40:51;;;;;;;37.58;12.80;;;;;;;;;;5031691;28;94304;-74
2022/05/20 09:43:22;;;;;;;23.33;9.55;;;;;;;;;;5022586;28;93752;-75
2022/05/20 09:45:50;;;;;;;10.52;4.75;;;;;;;;;;5022955;27;92494;-74
2022/05/20 09:48:34;;;;;;;10.25;3.80;;;;;;;;;;5037415;28;94340;-76
2022/05/20 09:51:05;;;;;;;6.80;3.67;;;;;;;;;;5032126;28;93037;-74
2022/05/20 09:53:34;;;;;;;14.90;3.63;;;;;;;;;;5019340;28;92703;-76
2022/05/20 09:56:18;;;;;;;10.52;3.67;;;;;;;;;;5024242;27;93518;-76
2022/05/20 09:59:03;;;;;;;6.43;3.78;;;;;;;;;;5026787;27;94195;-74
2022/05/20 10:01:30;;;;;;;9.13;4.10;;;;;;;;;;5023122;28;92595;-74
2022/05/20 10:04:01;;;;;;;8.07;3.42;;;;;;;;;;5034187;27;94988;-73
2022/05/20 10:06:37;;;;;;;11.70;4.63;;;;;;;;;;5031372;27;92585;-73
2022/05/20 10:09:08;;;;;;;11.45;3.95;;;;;;;;;;5019978;27;93165;-72
2022/05/20 10:11:53;;;;;;;13.90;3.50;;;;;;;;;;5032140;27;93083;-73
2022/05/20 10:14:24;;;;;;;10.00;3.30;;;;;;;;;;5033460;27;92541;-73
2022/05/20 10:16:59;;;;;;;11.60;2.70;;;;;;;;;;5030356;27;92637;-73
2022/05/20 10:19:31;;;;;;;9.90;3.42;;;;;;;;;;5030825;27;93260;-73
2022/05/20 10:35:48;;;;;;;15.85;4.18;;;;;;;;;;5097128;27;86504;-73
2022/05/20 10:38:38;;;;;;;14.63;4.00;;;;;;;;;;5070831;27;86921;-74
2022/05/20 10:41:07;;;;;;;8.75;3.05;;;;;;;;;;5054220;27;87020;-73
2022/05/20 10:49:17;;;;;;;10.93;3.92;;;;;;;;;;5060657;27;87689;-72
2022/05/20 10:51:56;;;;;;;6.47;2.80;;;;;;;;;;5068382;27;87387;-73
2022/05/20 10:54:50;;;;;;;7.60;3.53;;;;;;;;;;5090988;27;87643;-73
2022/05/20 10:57:37;;;;;;;7.32;3.42;;;;;;;;;;5094163;27;87063;-73
2022/05/20 11:00:13;;;;;;;6.93;3.72;;;;;;;;;;5070342;27;87890;-72
2022/05/20 11:02:58;;;;;;;8.60;3.55;;;;;;;;;;5086347;27;87114;-74
2022/05/20 11:05:36;;;;;;;9.38;4.22;;;;;;;;;;5056907;27;87623;-74
2022/05/20 11:08:22;;;;;;;11.68;4.07;;;;;;;;;;5054947;27;87915;-74
2022/05/20 11:11:07;;;;;;;7.57;3.28;;;;;;;;;;5073932;27;87500;-74
2022/05/20 11:13:53;;;;;;;11.32;3.92;;;;;;;;;;5075570;27;87185;-73
2022/05/20 11:16:31;;;;;;;12.27;4.05;;;;;;;;;;5062542;27;88009;-76
2022/05/20 11:19:00;;;;;;;9.82;3.92;;;;;;;;;;5067013;27;87830;-75
2022/05/20 11:21:43;;;;;;;7.45;3.85;;;;;;;;;;5057370;27;87379;-75
2022/05/20 11:24:09;;;;;;;6.00;3.65;;;;;;;;;;5060201;27;86967;-75
2022/05/20 11:26:38;;;;;;;5.53;2.88;;;;;;;;;;5055006;27;87350;-74
2022/05/20 11:29:12;;;;;;;6.80;3.15;;;;;;;;;;5056703;27;87542;-74
2022/05/20 11:31:39;;;;;;;8.43;3.67;;;;;;;;;;5075421;27;87178;-74
2022/05/20 11:34:12;;;;;;;5.18;2.97;;;;;;;;;;5063544;27;88537;-75
2022/05/20 11:37:07;;;;;;;9.45;3.13;;;;;;;;;;5087362;27;86964;-73
2022/05/20 11:39:34;;;;;;;8.27;3.40;;;;;;;;;;5060610;27;86864;-72
2022/05/20 11:42:14;;;;;;;7.88;2.63;;;;;;;;;;5077150;27;87562;-73
2022/05/20 11:45:09;;;;;;;12.13;3.72;;;;;;;;;;5077113;27;87859;-74
2022/05/20 11:47:56;;;;;;;8.38;3.70;;;;;;;;;;5057856;27;87760;-74
2022/05/20 11:50:37;;;;;;;9.07;4.35;;;;;;;;;;5053518;27;87757;-74
2022/05/20 11:53:08;;;;;;;8.98;3.92;;;;;;;;;;5061156;27;87405;-74
2022/05/20 11:55:40;;;;;;;12.38;4.25;;;;;;;;;;5066043;27;87447;-73
2022/05/20 11:58:08;;;;;;;11.60;4.50;;;;;;;;;;5075797;27;87709;-73
2022/05/20 12:00:37;;;;;;;8.25;4.80;;;;;;;;;;5079973;27;88503;-74
2022/05/20 12:03:09;;;;;;;9.27;4.80;;;;;;;;;;5079952;27;90958;-74
2022/05/20 12:05:37;;;;;;;14.63;4.60;;;;;;;;;;5077257;27;87813;-74
2022/05/20 12:08:03;;;;;;;10.80;4.75;;;;;;;;;;5064138;27;88313;-73
2022/05/20 12:10:30;;;;;;;12.90;5.38;;;;;;;;;;5042165;27;87879;-74
2022/05/20 12:13:14;;;;;;;12.23;5.90;;;;;;;;;;5061128;27;87174;-73
2022/05/20 12:15:43;;;;;;;12.15;5.75;;;;;;;;;;5048701;27;87697;-73
2022/05/20 12:24:33;;;;;;;13.20;7.22;;;;;;;;;;4976018;28;87513;-74
2022/05/20 12:26:59;;;;;;;19.90;6.07;;;;;;;;;;4977769;28;88125;-74
2022/05/20 12:29:34;;;;;;;22.80;6.13;;;;;;;;;;4975202;28;87384;-75
2022/05/20 12:32:19;;;;;;;18.90;7.28;;;;;;;;;;4981069;28;90317;-77
2022/05/20 12:35:04;;;;;;;12.30;6.63;;;;;;;;;;4966239;28;87306;-76
2022/05/20 12:37:42;;;;;;;18.75;8.15;;;;;;;;;;4959859;28;86734;-74
2022/05/20 12:40:38;;;;;;;19.80;7.47;;;;;;;;;;4966769;28;87684;-73
2022/05/20 12:43:04;;;;;;;17.63;7.75;;;;;;;;;;4974096;28;88467;-77
2022/05/20 12:45:33;;;;;;;18.02;8.60;;;;;;;;;;4961564;28;88877;-77
2022/05/20 12:47:59;;;;;;;16.38;8.82;;;;;;;;;;4975079;28;87913;-76
2022/05/20 12:50:27;;;;;;;35.03;10.38;;;;;;;;;;4976686;28;87229;-77
2022/05/20 12:52:59;;;;;;;26.60;10.30;;;;;;;;;;4957995;28;89350;-81
2022/05/20 12:55:33;;;;;;;22.63;10.20;;;;;;;;;;4978258;28;89206;-81
2022/05/20 12:58:00;;;;;;;25.38;10.40;;;;;;;;;;4974519;28;89526;-82
2022/05/20 13:00:28;;;;;;;24.20;11.20;;;;;;;;;;4983570;28;90968;-76
2022/05/20 13:02:57;;;;;;;25.45;11.32;;;;;;;;;;5035824;28;89607;-71
2022/05/20 13:05:35;;;;;;;24.52;11.93;;;;;;;;;;5035694;28;90299;-74
2022/05/20 13:08:03;;;;;;;21.10;11.18;;;;;;;;;;5017329;28;90191;-77
2022/05/20 13:10:34;;;;;;;24.02;11.75;;;;;;;;;;5035184;28;89808;-75
2022/05/20 13:13:02;;;;;;;19.42;10.98;;;;;;;;;;5035170;28;88835;-80
2022/05/20 13:15:29;;;;;;;24.13;12.55;;;;;;;;;;5036434;28;89735;-79
2022/05/20 13:18:04;;;;;;;22.58;12.25;;;;;;;;;;5036261;28;88853;-80
2022/05/20 13:20:32;;;;;;;19.83;12.30;;;;;;;;;;5055885;27;91145;-80
2022/05/20 13:23:03;;;;;;;25.33;13.68;;;;;;;;;;5054258;27;90634;-79
2022/05/20 13:25:30;;;;;;;19.85;11.52;;;;;;;;;;5060853;27;88950;-79
2022/05/20 13:27:56;;;;;;;21.35;11.80;;;;;;;;;;5059224;27;91134;-78
2022/05/20 13:30:25;;;;;;;18.75;12.38;;;;;;;;;;5057868;27;89391;-78
2022/05/20 13:32:51;;;;;;;26.38;12.95;;;;;;;;;;5041729;27;88997;-79
2022/05/20 13:35:18;;;;;;;26.95;12.52;;;;;;;;;;5061717;27;90077;-78
2022/05/20 13:37:47;;;;;;;28.48;13.00;;;;;;;;;;5061271;27;93216;-78
2022/05/20 13:40:17;;;;;;;22.75;12.80;;;;;;;;;;5040403;27;89681;-78
2022/05/20 13:42:47;;;;;;;18.88;12.20;;;;;;;;;;5062417;27;89653;-76
2022/05/20 13:45:15;;;;;;;23.42;12.45;;;;;;;;;;5057044;27;88810;-76
2022/05/20 13:50:27;;;;;;;19.73;13.52;;;;;;;;;;5071368;27;89572;-76
2022/05/20 13:52:54;;;;;;;22.92;13.07;;;;;;;;;;5057905;27;88883;-76
2022/05/20 13:55:25;;;;;;;24.63;14.35;;;;;;;;;;5064035;27;90531;-77
2022/05/20 13:57:51;;;;;;;26.70;13.95;;;;;;;;;;5040385;27;90853;-78
2022/05/20 14:00:18;;;;;;;27.23;14.27;;;;;;;;;;5063122;27;88905;-77
2022/05/20 14:02:50;;;;;;;23.30;15.27;;;;;;;;;;5072768;27;89131;-77
2022/05/20 14:05:22;;;;;;;21.10;14.68;;;;;;;;;;5065422;27;88964;-81
2022/05/20 14:07:50;;;;;;;19.85;14.27;;;;;;;;;;5073174;27;92471;-82
2022/05/20 14:10:29;;;;;;;23.55;14.48;;;;;;;;;;5069145;27;89385;-78
2022/05/20 14:13:01;;;;;;;23.63;14.30;;;;;;;;;;5057851;27;89252;-76
2022/05/20 14:15:41;;;;;;;22.75;14.80;;;;;;;;;;5050848;27;89840;-77
2022/05/20 14:18:27;;;;;;;28.40;15.87;;;;;;;;;;5057881;27;90756;-78
2022/05/20 14:20:58;;;;;;;22.88;13.82;;;;;;;;;;5057347;27;88877;-78
2022/05/20 14:23:25;;;;;;;24.60;13.05;;;;;;;;;;5060184;27;90234;-77
2022/05/20 14:25:56;;;;;;;20.23;13.88;;;;;;;;;;5038801;27;89036;-78
2022/05/20 14:28:44;;;;;;;20.23;13.52;;;;;;;;;;5039252;27;89790;-77
2022/05/20 14:31:16;;;;;;;19.60;13.63;;;;;;;;;;5057029;27;90116;-78
2022/05/20 14:33:45;;;;;;;25.92;14.30;;;;;;;;;;5061481;27;90325;-76
2022/05/20 14:36:14;;;;;;;21.88;13.73;;;;;;;;;;5074920;27;89841;-76
2022/05/20 14:38:43;;;;;;;21.52;14.75;;;;;;;;;;5077890;27;89060;-75
2022/05/20 14:41:16;;;;;;;15.47;11.70;;;;;;;;;;5059431;27;89254;-76
2022/05/20 14:43:50;;;;;;;17.52;13.45;;;;;;;;;;5077880;27;89782;-76
2022/05/20 14:47:14;;;;;;;24.75;14.68;;;;;;;;;;5074338;27;89382;-78
2022/05/20 14:49:07;;;;;;;;;;;;;;;;;;5075593;27;91469;-75
2022/05/20 14:51:33;;;;;;;25.25;14.93;;;;;;;;;;5077235;27;118672;-75
2022/05/20 14:54:01;;;;;;;19.77;13.52;;;;;;;;;;5046753;27;89021;-74
2022/05/20 14:56:39;;;;;;;17.70;14.00;;;;;;;;;;5059909;27;91174;-73
2022/05/20 14:59:06;;;;;;;21.25;14.25;;;;;;;;;;5054909;27;89688;-76
2022/05/20 15:01:33;;;;;;;19.85;14.45;;;;;;;;;;5055697;27;90930;-74
2022/05/20 15:04:00;;;;;;;18.38;14.23;;;;;;;;;;5055587;27;89172;-76
2022/05/20 15:06:28;;;;;;;18.95;13.98;;;;;;;;;;5041353;27;89396;-81
2022/05/20 15:08:55;;;;;;;18.38;13.05;;;;;;;;;;5057152;27;94420;-76
2022/05/20 15:11:27;;;;;;;19.92;13.70;;;;;;;;;;5076237;27;91063;-75
2022/05/20 15:13:53;;;;;;;19.25;13.98;;;;;;;;;;5056658;27;89615;-75
2022/05/20 15:16:20;;;;;;;22.80;14.80;;;;;;;;;;5073395;27;89659;-80
2022/05/20 15:18:46;;;;;;;20.77;14.65;;;;;;;;;;5057586;27;90601;-76
2022/05/20 15:21:14;;;;;;;18.75;13.75;;;;;;;;;;5072620;27;89249;-73
2022/05/20 15:23:42;;;;;;;18.40;14.15;;;;;;;;;;5052702;27;89937;-73
2022/05/20 15:26:10;;;;;;;21.00;14.10;;;;;;;;;;5080413;27;90780;-82
2022/05/20 15:28:51;;;;;;;18.40;14.15;;;;;;;;;;5063279;27;94691;-73
2022/05/20 15:36:50;;;;;;;18.40;13.63;;;;;;;;;;5077964;27;90138;-73
2022/05/20 15:39:19;;;;;;;18.48;13.93;;;;;;;;;;5080021;27;89828;-72
2022/05/20 15:41:45;;;;;;;22.30;14.48;;;;;;;;;;5053208;27;89090;-76
2022/05/20 15:44:11;;;;;;;20.27;13.43;;;;;;;;;;5066619;27;89829;-76
2022/05/20 15:46:37;;;;;;;13.00;10.15;;;;;;;;;;5047944;27;89646;-79